Etusivu
METAR-TAF:

METAR-TAF

Lentoasemat :

Netaji Subhash Chandra Bosen kansainvälinen lentoasema

Kalkutta, Intia

Leveyspiiri: 22-39N, Pituuspiiri: 088-27E, korkeus merenpinnasta: 4 m

Tämänhetkinen sää

Tämä raportti tehtiin 36 minuuttia sitten, kello 04.00 UTC
Tuuli 4 kn koillisesta
Lämpötila 24°C
Kosteus 74%
Ilmanpaine 1018 hPa
Näkyvyys: 2000 m
Muutamia pilviä 2000 ft:n korkeudessa
usvaa

METAR: VECC 210400Z 05004KT 2000 HZ FEW020 24/19 Q1018 NOSIG

Aika: 10:06 (04:36 UTC)

Sääennuste

Tämä raportti tehtiin 2 tuntia ja 36 minuuttia sitten, kello 02.00 UTC
Ennuste voimassa 21. päivästä klo 03 UTC - 21. päivään klo 12 UTC
Tuuli 5 kn pohjoisesta
Näkyvyys: 1800 m
utua
Tulossa
21. päivästä klo 04 UTC - 21. päivään klo 06 UTC
Näkyvyys: 3500 m
usvaa

TAF: VECC 210200Z 2103/2112 36005KT 1800 BR NSC BECMG 2104/2106 3500 HZ

Säähavainnot ja -ennusteet yli 4000 lentoasemalta (METAR- ja TAF-raportit).

Käytössä olevat sääasemat on merkitty karttaan keltaisilla ja punaisilla pisteillä.

Aseta hiiri pisteen päälle nähdäksesi sääaseman nimen.

Klikkaa sitten nähdäksesi säähavainnot ja -ennusteet.

Kartan vaihtaminen: klikkaa mustalla rastilla varustettuja vihreitä pisteitä, niin voit zoomata sisään; viivalla varustettua vihreää pistettä, niin voit zoomata ulos tai vihreitä nuolia, niin pääset viereisille kartoille.


METAR-TAF: